Terminal Aerodrome Forecast
Issued by NWS

Home | Current Version | Previous Version | Text Only | Print | Product List | Glossary On
Versions: 1 2 3 4 5 6 7 8 9 10 11 12 13 14 15 16 17
000
FTAK31 PAJN 281100
TAFASI
TAF
PASI 281132Z 2812/2912 12005KT P6SM SCT030 BKN070
     FM281900 14008KT P6SM -RA SCT020 OVC040
     FM290600 14010KT P6SM -RA SCT020 OVC040
      TEMPO 2906/2910 3SM -RA SCT015 OVC035
     FM291000 14010KT 3SM -RA SCT015 OVC035=

USA.gov is the U.S. government's official web portal to all federal, state and local government web resources and services.